createdAt,value
2019-05-13T00:00:44.723Z,102666.97
2019-05-13T00:03:14.093Z,102675.13
2019-05-13T00:05:44.578Z,102677.33
2019-05-13T00:08:14.265Z,102681.85
2019-05-13T00:10:44.135Z,102690.89
2019-05-13T00:13:14.781Z,102689.78
2019-05-13T00:15:44.723Z,102690.78
2019-05-13T00:18:14.573Z,102690.78
2019-05-13T00:20:44.422Z,102694.89
2019-05-13T00:23:14.443Z,102696.70
2019-05-13T00:25:44.633Z,102700.22
2019-05-13T00:28:14.468Z,102700.73
2019-05-13T00:30:44.743Z,102708.16
2019-05-13T00:33:14.285Z,102710.38
2019-05-13T00:35:44.200Z,102711.58
2019-05-13T00:38:14.381Z,102719.71
2019-05-13T00:40:44.371Z,102719.50
2019-05-13T00:43:14.546Z,102721.00
2019-05-13T00:45:44.758Z,102719.08
2019-05-13T00:48:14.501Z,102722.70
2019-05-13T00:50:44.399Z,102728.44
2019-05-13T00:53:14.180Z,102725.02
2019-05-13T00:55:44.498Z,102733.07
2019-05-13T00:58:14.272Z,102729.45
2019-05-13T01:00:44.847Z,102735.47
2019-05-13T01:03:14.579Z,102727.93
2019-05-13T01:05:44.641Z,102728.73
2019-05-13T01:08:14.976Z,102732.66
2019-05-13T01:10:45.169Z,102729.64
2019-05-13T01:13:14.731Z,102737.37
2019-05-13T01:15:44.573Z,102734.25
2019-05-13T01:18:14.375Z,102746.70
2019-05-13T01:20:44.093Z,102745.29
2019-05-13T01:23:14.129Z,102745.58
2019-05-13T01:25:44.581Z,102745.77
2019-05-13T01:28:15.347Z,102745.66
2019-05-13T01:30:44.724Z,102746.46
2019-05-13T01:33:14.587Z,102751.51
2019-05-13T01:35:44.724Z,102747.89
2019-05-13T01:38:13.965Z,102750.28
2019-05-13T01:40:44.001Z,102755.39
2019-05-13T01:43:14.591Z,102759.31
2019-05-13T01:45:44.342Z,102762.72
2019-05-13T01:48:14.300Z,102768.85
2019-05-13T01:50:44.676Z,102769.44
2019-05-13T01:53:14.680Z,102767.91
2019-05-13T01:55:44.458Z,102766.91
2019-05-13T01:58:14.761Z,102768.09
2019-05-13T02:00:44.619Z,102773.21
2019-05-13T02:03:14.721Z,102772.30
2019-05-13T02:05:44.518Z,102771.91
2019-05-13T02:08:14.458Z,102779.23
2019-05-13T02:10:54.653Z,102783.94
2019-05-13T02:13:25.022Z,102785.65
2019-05-13T02:15:55.746Z,102785.65
2019-05-13T02:18:25.889Z,102789.06
2019-05-13T02:20:55.958Z,102790.14
2019-05-13T02:23:25.737Z,102795.77
2019-05-13T02:25:55.115Z,102794.45
2019-05-13T02:28:25.222Z,102796.16
2019-05-13T02:30:56.491Z,102793.55
2019-05-13T02:33:26.411Z,102793.84
2019-05-13T02:35:55.553Z,102793.73
2019-05-13T02:38:30.214Z,102790.50
2019-05-13T02:40:55.960Z,102788.47
2019-05-13T02:43:25.195Z,102788.64
2019-05-13T02:45:54.872Z,102794.44
2019-05-13T02:48:24.524Z,102796.55
2019-05-13T02:50:54.703Z,102793.42
2019-05-13T02:53:24.568Z,102800.23
2019-05-13T02:55:54.533Z,102806.36
2019-05-13T02:58:25.098Z,102808.28
2019-05-13T03:00:54.771Z,102805.28
2019-05-13T03:03:24.207Z,102810.21
2019-05-13T03:05:53.778Z,102811.85
2019-05-13T03:08:39.508Z,102815.70
2019-05-13T03:10:54.408Z,102816.50
2019-05-13T03:13:24.365Z,102818.99
2019-05-13T03:16:13.644Z,102814.68
2019-05-13T03:18:43.761Z,102819.91
2019-05-13T03:21:13.620Z,102825.23
2019-05-13T03:23:44.307Z,102828.35
2019-05-13T03:26:13.861Z,102827.55
2019-05-13T03:28:44.067Z,102836.30
2019-05-13T03:31:16.589Z,102839.19
2019-05-13T03:33:46.959Z,102841.40
2019-05-13T03:36:18.097Z,102852.97
2019-05-13T03:39:01.435Z,102860.52
2019-05-13T03:41:22.526Z,102857.51
2019-05-13T03:43:53.467Z,102853.98
2019-05-13T03:46:24.566Z,102856.31
2019-05-13T03:48:55.329Z,102859.72
2019-05-13T03:51:24.777Z,102857.80
2019-05-13T03:53:54.180Z,102868.23
2019-05-13T03:56:24.189Z,102869.55
2019-05-13T03:58:54.130Z,102871.64
2019-05-13T04:01:23.845Z,102877.04
2019-05-13T04:03:53.147Z,102875.51
2019-05-13T04:06:23.663Z,102885.22
2019-05-13T04:08:54.167Z,102885.90
2019-05-13T04:11:24.175Z,102886.06
2019-05-13T04:13:53.538Z,102882.95
2019-05-13T04:16:23.946Z,102892.88
2019-05-13T04:18:53.909Z,102892.77
2019-05-13T04:21:23.782Z,102897.59
2019-05-13T04:23:53.607Z,102901.90
2019-05-13T04:26:23.835Z,102896.80
2019-05-13T04:28:53.914Z,102904.96
2019-05-13T04:31:23.275Z,102906.20
2019-05-13T04:33:53.486Z,102906.32
2019-05-13T04:36:23.866Z,102902.23
2019-05-13T04:38:53.618Z,102907.56
2019-05-13T04:41:23.369Z,102909.38
2019-05-13T04:43:53.962Z,102906.20
2019-05-13T04:46:23.712Z,102914.55
2019-05-13T04:48:53.269Z,102924.42
2019-05-13T04:51:23.182Z,102922.25
2019-05-13T04:53:56.954Z,102919.80
2019-05-13T04:56:24.152Z,102927.06
2019-05-13T04:58:53.406Z,102923.66
2019-05-13T05:02:05.030Z,102925.36
2019-05-13T05:04:43.779Z,102936.60
2019-05-13T05:07:42.067Z,102934.90
2019-05-13T05:10:38.639Z,102943.86
2019-05-13T05:13:36.410Z,102941.84
2019-05-13T05:16:32.568Z,102946.89
2019-05-13T05:19:23.638Z,102945.80
2019-05-13T05:22:09.207Z,102950.34
2019-05-13T05:24:52.119Z,102953.75
2019-05-13T05:28:03.871Z,102949.66
2019-05-13T05:31:06.407Z,102952.66
2019-05-13T05:34:16.684Z,102960.80
2019-05-13T05:37:11.801Z,102961.59
2019-05-13T05:39:43.694Z,102957.78
2019-05-13T05:42:16.229Z,102964.53
2019-05-13T05:44:47.183Z,102958.63
2019-05-13T05:47:21.331Z,102967.98
2019-05-13T05:49:53.267Z,102974.45
2019-05-13T05:52:24.474Z,102976.16
2019-05-13T05:54:55.185Z,102977.00
2019-05-13T05:57:26.384Z,102979.03
2019-05-13T05:59:56.664Z,102981.00
2019-05-13T06:02:28.838Z,102983.73
2019-05-13T06:04:58.690Z,102992.04
2019-05-13T06:07:28.434Z,102992.00
2019-05-13T06:09:57.885Z,102987.20
2019-05-13T06:12:28.425Z,102998.56
2019-05-13T06:14:58.134Z,102992.24
2019-05-13T06:17:27.538Z,102998.09
2019-05-13T06:19:58.017Z,103007.14
2019-05-13T06:22:27.441Z,103006.25
2019-05-13T06:24:56.742Z,103011.30
2019-05-13T06:27:26.077Z,103007.70
2019-05-13T06:29:55.296Z,103017.98
2019-05-13T06:32:26.540Z,103024.44
2019-05-13T06:34:56.069Z,103016.59
2019-05-13T06:37:25.501Z,103038.75
2019-05-13T06:39:55.732Z,103022.83
2019-05-13T06:42:25.070Z,103029.88
2019-05-13T06:44:54.375Z,103036.45
2019-05-13T06:47:23.593Z,103029.92
2019-05-13T06:49:52.845Z,103035.58
2019-05-13T06:52:22.314Z,103043.75
2019-05-13T06:54:52.157Z,103040.23
2019-05-13T06:57:22.141Z,103045.86
2019-05-13T06:59:52.553Z,103052.52
2019-05-13T07:02:22.229Z,103056.84
2019-05-13T07:04:51.831Z,103059.03
2019-05-13T07:07:22.073Z,103059.02
2019-05-13T07:09:52.209Z,103064.63
2019-05-13T07:12:22.023Z,103064.01
2019-05-13T07:14:52.063Z,103061.06
2019-05-13T07:17:22.369Z,103066.59
2019-05-13T07:19:52.020Z,103070.34
2019-05-13T07:22:22.981Z,103068.55
2019-05-13T07:24:52.626Z,103069.78
2019-05-13T07:27:22.960Z,103074.61
2019-05-13T07:29:55.542Z,103078.13
2019-05-13T07:32:23.755Z,103079.66
2019-05-13T07:34:53.492Z,103088.53
2019-05-13T07:37:23.534Z,103081.39
2019-05-13T07:39:53.856Z,103099.69
2019-05-13T07:42:23.173Z,103093.33
2019-05-13T07:44:52.451Z,103095.62
2019-05-13T07:47:22.432Z,103106.49
2019-05-13T07:49:51.890Z,103108.02
2019-05-13T07:52:22.758Z,103109.51
2019-05-13T07:54:52.328Z,103104.46
2019-05-13T07:57:21.650Z,103111.22
2019-05-13T07:59:52.422Z,103117.97
2019-05-13T08:02:22.081Z,103117.93
2019-05-13T08:04:53.106Z,103120.78
2019-05-13T08:07:22.783Z,103126.46
2019-05-13T08:09:55.700Z,103131.12
2019-05-13T08:12:23.296Z,103132.42
2019-05-13T08:14:52.510Z,103133.44
2019-05-13T08:17:22.493Z,103138.56
2019-05-13T08:19:52.276Z,103138.45
2019-05-13T08:22:22.536Z,103143.46
2019-05-13T08:24:54.294Z,103141.99
2019-05-13T08:27:30.368Z,103142.17
2019-05-13T08:29:54.215Z,103137.84
2019-05-13T08:32:23.535Z,103142.05
2019-05-13T08:35:01.578Z,103145.18
2019-05-13T08:37:23.910Z,103146.42
2019-05-13T08:39:53.193Z,103149.55
2019-05-13T08:42:23.496Z,103145.91
2019-05-13T08:44:53.586Z,103149.89
2019-05-13T08:47:22.796Z,103145.77
2019-05-13T08:49:52.247Z,103146.77
2019-05-13T08:52:22.046Z,103153.73
2019-05-13T08:54:52.483Z,103155.48
2019-05-13T08:57:22.383Z,103155.05
2019-05-13T08:59:51.801Z,103151.49
2019-05-13T09:02:22.153Z,103152.06
2019-05-13T09:04:51.999Z,103153.87
2019-05-13T09:07:24.206Z,103154.08
2019-05-13T09:09:52.683Z,103155.84
2019-05-13T09:14:53.114Z,103159.03
2019-05-13T09:17:22.355Z,103156.95
2019-05-13T09:19:52.178Z,103156.27
2019-05-13T09:22:21.537Z,103160.52
2019-05-13T09:27:22.605Z,103154.47
2019-05-13T09:29:52.148Z,103154.35
2019-05-13T09:32:21.699Z,103154.30
2019-05-13T09:34:52.499Z,103155.70
2019-05-13T09:37:22.593Z,103146.70
2019-05-13T09:39:52.308Z,103148.87
2019-05-13T09:42:21.840Z,103153.05
2019-05-13T09:44:52.551Z,103148.27
2019-05-13T09:47:22.361Z,103144.45
2019-05-13T09:49:51.615Z,103150.14
2019-05-13T09:52:23.226Z,103144.33
2019-05-13T09:54:52.590Z,103147.58
2019-05-13T09:57:22.120Z,103145.22
2019-05-13T09:59:52.434Z,103144.15
2019-05-13T10:02:21.972Z,103142.12
2019-05-13T10:04:51.699Z,103135.11
2019-05-13T10:07:22.926Z,103130.31
2019-05-13T10:09:52.304Z,103134.52
2019-05-13T10:12:24.324Z,103128.47
2019-05-13T10:14:52.646Z,103126.70
2019-05-13T10:17:22.354Z,103126.89
2019-05-13T10:19:52.114Z,103125.08
2019-05-13T10:22:22.171Z,103129.42
2019-05-13T10:24:51.706Z,103124.84
2019-05-13T10:27:22.358Z,103120.38
2019-05-13T10:29:52.579Z,103126.15
2019-05-13T10:32:22.348Z,103129.83
2019-05-13T10:34:53.947Z,103135.27
2019-05-13T10:37:23.265Z,103133.30
2019-05-13T10:39:52.879Z,103133.56
2019-05-13T10:42:22.492Z,103136.67
2019-05-13T10:44:52.353Z,103135.88
2019-05-13T10:47:22.710Z,103135.25
2019-05-13T10:49:52.646Z,103134.55
2019-05-13T10:52:22.947Z,103131.41
2019-05-13T10:54:52.852Z,103138.03
2019-05-13T10:57:22.424Z,103139.98
2019-05-13T10:59:52.968Z,103132.53
2019-05-13T11:02:22.370Z,103135.48
2019-05-13T11:04:52.553Z,103133.86
2019-05-13T11:07:22.590Z,103122.56
2019-05-13T11:09:52.936Z,102945.11
2019-05-13T11:12:28.038Z,103137.83
2019-05-13T11:14:55.371Z,103136.20
2019-05-13T11:17:30.884Z,103143.55
2019-05-13T11:19:55.832Z,103145.77
2019-05-13T11:22:25.059Z,103140.48
2019-05-13T11:24:54.261Z,103141.42
2019-05-13T11:27:23.761Z,103140.59
2019-05-13T11:29:52.974Z,103146.90
2019-05-13T11:32:22.448Z,103132.47
2019-05-13T11:34:53.022Z,103129.13
2019-05-13T11:37:23.350Z,103127.84
2019-05-13T11:39:53.159Z,103128.84
2019-05-13T11:42:22.876Z,103135.59
2019-05-13T11:44:52.997Z,103130.24
2019-05-13T11:47:22.525Z,103134.63
2019-05-13T11:49:53.217Z,103132.13
2019-05-13T11:52:22.837Z,103141.20
2019-05-13T11:54:53.919Z,103147.89
2019-05-13T11:57:23.528Z,103148.60
2019-05-13T11:59:53.678Z,103140.48
2019-05-13T12:02:23.537Z,103148.35
2019-05-13T12:04:53.959Z,103144.65
2019-05-13T12:07:23.733Z,103144.88
2019-05-13T12:09:52.944Z,103147.73
2019-05-13T12:12:25.058Z,103142.21
2019-05-13T12:15:20.500Z,103142.17
2019-05-13T12:17:24.288Z,103132.68
2019-05-13T12:19:54.296Z,103128.72
2019-05-13T12:22:24.236Z,103128.12
2019-05-13T12:24:53.458Z,103115.61
2019-05-13T12:27:23.565Z,103111.36
2019-05-13T12:29:53.217Z,103111.70
2019-05-13T12:32:22.670Z,103123.12
2019-05-13T12:37:23.297Z,103131.29
2019-05-13T12:39:53.417Z,103134.11
2019-05-13T12:42:23.039Z,103135.28
2019-05-13T12:45:08.985Z,103138.37
2019-05-13T12:47:23.690Z,103138.52
2019-05-13T12:49:53.016Z,103147.19
2019-05-13T12:52:23.094Z,103142.48
2019-05-13T12:54:53.082Z,103141.80
2019-05-13T12:57:23.324Z,103136.00
2019-05-13T12:59:52.815Z,103133.44
2019-05-13T13:02:23.131Z,103128.20
2019-05-13T13:05:10.775Z,103134.12
2019-05-13T13:07:23.479Z,103129.57
2019-05-13T13:09:54.071Z,103133.28
2019-05-13T13:12:33.701Z,103134.34
2019-05-13T13:14:54.908Z,103130.27
2019-05-13T13:17:24.421Z,103120.95
2019-05-13T13:19:56.805Z,103119.83
2019-05-13T13:22:25.514Z,103119.08
2019-05-13T13:24:57.393Z,103121.91
2019-05-13T13:27:57.727Z,103120.48
2019-05-13T13:30:03.279Z,103113.08
2019-05-13T13:32:28.556Z,103120.61
2019-05-13T13:34:57.785Z,103115.55
2019-05-13T13:37:27.193Z,103130.52
2019-05-13T13:39:56.775Z,103125.37
2019-05-13T13:42:26.045Z,103127.66
2019-05-13T13:44:55.474Z,103114.75
2019-05-13T13:47:24.728Z,103119.38
2019-05-13T13:49:54.000Z,103118.16
2019-05-13T13:52:23.348Z,103107.63
2019-05-13T13:55:02.147Z,103103.41
2019-05-13T13:57:25.762Z,103115.31
2019-05-13T14:00:20.835Z,103119.63
2019-05-13T14:02:26.382Z,103116.34
2019-05-13T14:04:56.225Z,103117.78
2019-05-13T14:06:25.161Z,103149.97
2019-05-13T14:06:33.066Z,103122.78
2019-05-13T14:07:05.494Z,103156.98
2019-05-13T14:07:34.387Z,103114.80
2019-05-13T14:09:56.396Z,103118.26
2019-05-13T14:12:25.741Z,103110.75
2019-05-13T14:14:55.612Z,103115.27
2019-05-13T14:17:24.929Z,103111.55
2019-05-13T14:19:54.378Z,103098.93
2019-05-13T14:22:23.643Z,103099.64
2019-05-13T14:24:52.860Z,103086.78
2019-05-13T14:27:22.501Z,103093.09
2019-05-13T14:29:55.493Z,103092.07
2019-05-13T14:32:24.904Z,103103.05
2019-05-13T14:34:54.169Z,103102.69
2019-05-13T14:37:23.405Z,103098.61
2019-05-13T14:39:52.813Z,103104.05
2019-05-13T14:42:22.865Z,103102.59
2019-05-13T14:44:52.605Z,103100.27
2019-05-13T14:47:22.328Z,103101.76
2019-05-13T14:49:52.249Z,103102.41
2019-05-13T14:52:22.354Z,103104.16
2019-05-13T14:54:52.062Z,103098.44
2019-05-13T14:57:21.908Z,103092.31
2019-05-13T14:59:51.589Z,103087.31
2019-05-13T15:02:21.034Z,103087.55
2019-05-13T15:04:52.338Z,103094.02
2019-05-13T15:07:21.762Z,103094.08
2019-05-13T15:09:52.750Z,103088.80
2019-05-13T15:12:21.980Z,103097.18
2019-05-13T15:14:52.489Z,103098.57
2019-05-13T15:17:22.105Z,103105.66
2019-05-13T15:19:52.521Z,103113.34
2019-05-13T15:22:22.718Z,103103.05
2019-05-13T15:24:52.558Z,103110.46
2019-05-13T15:27:22.427Z,103113.75
2019-05-13T15:29:52.903Z,103114.24
2019-05-13T15:32:22.174Z,103115.11
2019-05-13T15:34:51.953Z,103118.95
2019-05-13T15:37:21.728Z,103118.25
2019-05-13T15:39:51.850Z,103125.42
2019-05-13T15:42:21.518Z,103125.71
2019-05-13T15:44:53.056Z,103120.44
2019-05-13T15:47:24.000Z,103122.92
2019-05-13T15:49:53.038Z,103128.78
2019-05-13T15:52:23.366Z,103132.12
2019-05-13T15:54:52.633Z,103138.47
2019-05-13T15:57:22.162Z,103141.44
2019-05-13T15:59:51.942Z,103145.50
2019-05-13T16:02:22.603Z,103140.72
2019-05-13T16:05:00.710Z,103144.06
2019-05-13T16:07:23.271Z,103142.02
2019-05-13T16:09:52.802Z,103149.69
2019-05-13T16:12:22.207Z,103153.64
2019-05-13T16:14:51.800Z,103158.01
2019-05-13T16:17:30.606Z,103153.64
2019-05-13T16:19:53.485Z,103153.84
2019-05-13T16:22:23.267Z,103159.63
2019-05-13T16:24:52.483Z,103161.50
2019-05-13T16:27:22.373Z,103154.25
2019-05-13T16:29:51.746Z,103162.48
2019-05-13T16:32:22.719Z,103156.90
2019-05-13T16:34:52.452Z,103160.20
2019-05-13T16:37:22.067Z,103168.02
2019-05-13T16:39:52.182Z,103168.02
2019-05-13T16:42:22.469Z,103166.70
2019-05-13T16:44:51.972Z,103168.34
2019-05-13T16:47:21.383Z,103168.98
2019-05-13T16:49:50.774Z,103179.69
2019-05-13T16:52:22.076Z,103176.55
2019-05-13T16:54:53.167Z,103176.55
2019-05-13T16:57:22.187Z,103186.64
2019-05-13T16:59:51.832Z,103184.13
2019-05-13T17:02:21.885Z,103184.13
2019-05-13T17:04:52.092Z,103184.70
2019-05-13T17:07:21.502Z,103184.70
2019-05-13T17:09:52.131Z,103193.11
2019-05-13T17:12:21.578Z,103187.94
2019-05-13T17:14:52.263Z,103192.21
2019-05-13T17:17:21.913Z,103192.86
2019-05-13T17:19:53.703Z,103201.32
2019-05-13T17:22:22.115Z,103193.81
2019-05-13T17:24:52.134Z,103193.81
2019-05-13T17:27:21.538Z,103211.43
2019-05-13T17:29:51.597Z,103209.34
2019-05-13T17:32:22.221Z,103208.44
2019-05-13T17:34:51.691Z,103209.17
2019-05-13T17:37:22.120Z,103213.20
2019-05-13T18:10:47.003Z,103249.12
2019-05-13T18:13:16.155Z,103255.58
2019-05-13T18:15:45.381Z,103257.80
2019-05-13T18:18:14.909Z,103262.13
2019-05-13T18:20:45.582Z,103261.52
2019-05-13T18:23:14.927Z,103268.91
2019-05-13T18:25:44.415Z,103268.39
2019-05-13T18:28:27.505Z,103269.28
2019-05-13T18:30:45.201Z,103269.83
2019-05-13T18:33:15.142Z,103267.25
2019-05-13T18:35:44.475Z,103273.27
2019-05-13T18:38:14.606Z,103273.25
2019-05-13T18:40:43.969Z,103281.80
2019-05-13T18:43:13.209Z,103278.97
2019-05-13T18:45:42.738Z,103287.81
2019-05-13T18:48:12.367Z,103293.64
2019-05-13T18:50:42.024Z,103300.08
2019-05-13T18:53:11.482Z,103300.73
2019-05-13T18:55:41.635Z,103305.20
2019-05-13T18:58:11.751Z,103305.74
2019-05-13T19:00:41.736Z,103309.80
2019-05-13T19:03:12.442Z,103321.71
2019-05-13T19:05:42.290Z,103323.88
2019-05-13T19:08:13.684Z,103321.20
2019-05-13T19:10:43.324Z,103320.36
2019-05-13T19:13:12.755Z,103322.80
2019-05-13T19:15:42.051Z,103319.56
2019-05-13T19:18:12.245Z,103325.76
2019-05-13T19:20:41.918Z,103334.17
2019-05-13T19:23:11.924Z,103335.81
2019-05-13T19:25:42.674Z,103329.61
2019-05-13T19:28:12.119Z,103334.89
2019-05-13T19:30:41.415Z,103335.45
2019-05-13T19:33:12.423Z,103337.20
2019-05-13T19:35:42.656Z,103340.38
2019-05-13T19:38:12.290Z,103338.59
2019-05-13T19:40:48.284Z,103340.07
2019-05-13T19:43:44.865Z,103343.48
2019-05-13T19:45:57.243Z,103342.34
2019-05-13T19:48:32.348Z,103347.20
2019-05-13T19:51:01.752Z,103349.86
2019-05-13T19:53:31.921Z,103346.38
2019-05-13T19:56:02.490Z,103351.63
2019-05-13T19:58:33.526Z,103350.64
2019-05-13T20:01:03.239Z,103350.28
2019-05-13T20:03:32.673Z,103347.94
2019-05-13T20:06:02.452Z,103353.95
2019-05-13T20:08:32.294Z,103350.70
2019-05-13T20:11:02.270Z,103361.06
2019-05-13T20:13:34.025Z,103354.48
2019-05-13T20:16:03.416Z,103359.09
2019-05-13T20:18:32.636Z,103356.50
2019-05-13T20:21:02.230Z,103362.78
2019-05-13T20:23:32.034Z,103370.77
2019-05-13T20:26:01.543Z,103372.09
2019-05-13T20:28:31.671Z,103381.90
2019-05-13T20:31:01.861Z,103371.99
2019-05-13T20:33:32.124Z,103372.66
2019-05-13T20:36:01.792Z,103372.53
2019-05-13T20:38:31.707Z,103369.17
2019-05-13T20:41:01.647Z,103365.30
2019-05-13T20:43:32.820Z,103374.19
2019-05-13T20:46:06.696Z,103375.91
2019-05-13T20:48:36.048Z,103376.04
2019-05-13T20:51:05.253Z,103370.57
2019-05-13T20:53:34.650Z,103366.16
2019-05-13T20:56:04.090Z,103367.59
2019-05-13T20:58:33.363Z,103372.42
2019-05-13T21:01:05.800Z,103362.52
2019-05-13T21:03:37.886Z,103363.31
2019-05-13T21:06:07.247Z,103369.84
2019-05-13T21:08:36.580Z,103371.15
2019-05-13T21:11:05.832Z,103372.72
2019-05-13T21:13:38.094Z,103368.55
2019-05-13T21:16:07.778Z,103365.16
2019-05-13T21:18:37.238Z,103371.94
2019-05-13T21:21:06.745Z,103369.98
2019-05-13T21:23:35.962Z,103374.28
2019-05-13T21:26:05.279Z,103379.63
2019-05-13T21:28:34.923Z,103378.45
2019-05-13T21:31:04.148Z,103370.11
2019-05-13T21:33:33.403Z,103378.19
2019-05-13T21:36:02.828Z,103379.36
2019-05-13T21:38:32.582Z,103379.22
2019-05-13T21:41:01.876Z,103381.04
2019-05-13T21:43:32.403Z,103378.95
2019-05-13T21:46:02.311Z,103228.39
2019-05-13T21:48:32.661Z,103377.38
2019-05-13T21:51:01.958Z,103374.76
2019-05-13T21:53:32.601Z,103375.02
2019-05-13T21:56:02.601Z,103373.45
2019-05-13T21:58:32.084Z,103375.00
2019-05-13T22:01:02.271Z,103374.70
2019-05-13T22:03:33.568Z,103377.55
2019-05-13T22:06:02.726Z,103381.33
2019-05-13T22:08:32.235Z,103376.11
2019-05-13T22:11:02.095Z,103377.53
2019-05-13T22:13:31.726Z,103376.73
2019-05-13T22:16:01.733Z,103374.39
2019-05-13T22:18:31.741Z,103375.16
2019-05-13T22:21:01.553Z,103380.48
2019-05-13T22:23:32.197Z,103372.52
2019-05-13T22:26:02.029Z,103378.63
2019-05-13T22:28:31.566Z,103370.55
2019-05-13T22:31:01.622Z,103369.75
2019-05-13T22:33:32.386Z,103367.12
2019-05-13T22:36:02.122Z,103369.31
2019-05-13T22:38:32.297Z,103371.64
2019-05-13T22:41:02.028Z,103372.67
2019-05-13T22:43:31.970Z,103372.39
2019-05-13T22:46:01.808Z,103370.57
2019-05-13T22:48:31.936Z,103373.81
2019-05-13T22:51:01.762Z,103364.33
2019-05-13T22:53:31.841Z,103366.41
2019-05-13T22:56:01.665Z,103364.69
2019-05-13T22:58:32.158Z,103367.92
2019-05-13T23:01:02.495Z,103371.58
2019-05-13T23:03:32.606Z,103363.50
2019-05-13T23:06:02.660Z,103364.13
2019-05-13T23:08:32.558Z,103362.55
2019-05-13T23:11:02.661Z,103356.94
2019-05-13T23:13:31.876Z,103361.48
2019-05-13T23:16:02.475Z,103355.47
2019-05-13T23:18:32.000Z,103354.56
2019-05-13T23:21:02.348Z,103352.59
2019-05-13T23:23:31.833Z,103354.00
2019-05-13T23:26:01.818Z,103351.50
2019-05-13T23:28:32.298Z,103355.52
2019-05-13T23:31:01.834Z,103348.59
2019-05-13T23:33:31.610Z,103351.58
2019-05-13T23:36:01.523Z,103350.53
2019-05-13T23:38:31.876Z,103347.64
2019-05-13T23:41:03.862Z,103350.62
2019-05-13T23:43:33.079Z,103350.73
2019-05-13T23:46:02.290Z,103355.16
2019-05-13T23:48:32.182Z,103348.14
2019-05-13T23:51:01.574Z,103351.89
2019-05-13T23:53:31.498Z,103349.40
2019-05-13T23:56:02.096Z,103337.04
2019-05-13T23:58:32.581Z,103340.66
